Time;durP1;ratioP1;P1;durP2;ratioP2;P2;SDS_P1;SDS_P2;PMS_P1;PMS_P2;Temp;Humidity;BMP_temperature;BMP_pressure;BME280_temperature;BME280_humidity;BME280_pressure;Samples;Min_cycle;Max_cycle;Signal;HPM_P1;HPM_P2
2021/08/24 00:01:40;;;;;;;5.40;2.63;;;13.80;99.90;;;;;;5127768;27;20697;-51
2021/08/24 00:04:07;;;;;;;4.20;1.90;;;13.80;99.90;;;;;;5119902;27;20244;-46
2021/08/24 00:06:33;;;;;;;3.13;2.10;;;13.90;99.90;;;;;;5115336;27;20197;-49
2021/08/24 00:09:00;;;;;;;9.67;2.50;;;13.80;99.90;;;;;;5115805;27;20196;-43
2021/08/24 00:11:26;;;;;;;4.40;2.27;;;13.80;99.90;;;;;;5124341;27;20219;-51
2021/08/24 00:13:53;;;;;;;2.13;1.93;;;13.80;99.90;;;;;;5108338;27;20205;-42
2021/08/24 00:16:21;;;;;;;5.33;2.13;;;13.70;99.90;;;;;;5118163;27;20208;-44
2021/08/24 00:18:48;;;;;;;2.23;1.90;;;13.60;99.90;;;;;;5114699;27;20212;-48
2021/08/24 00:21:15;;;;;;;4.20;2.43;;;13.50;99.90;;;;;;5102942;27;20218;-44
2021/08/24 00:23:41;;;;;;;3.40;2.10;;;13.50;99.90;;;;;;5096544;27;20590;-49
2021/08/24 00:26:08;;;;;;;5.30;2.63;;;13.50;99.90;;;;;;5124608;27;20200;-44
2021/08/24 00:28:34;;;;;;;6.40;2.20;;;13.50;99.90;;;;;;5113283;27;20192;-50
2021/08/24 00:31:01;;;;;;;3.07;2.40;;;13.50;99.90;;;;;;5112837;27;20220;-45
2021/08/24 00:33:29;;;;;;;3.73;2.10;;;13.50;99.90;;;;;;5113188;27;20200;-50
2021/08/24 00:35:56;;;;;;;4.80;2.10;;;13.50;99.90;;;;;;5099376;27;20872;-42
2021/08/24 00:38:25;;;;;;;3.70;2.37;;;13.50;99.90;;;;;;5124563;27;20212;-43
2021/08/24 00:40:54;;;;;;;3.67;2.03;;;13.40;99.90;;;;;;5113921;27;20223;-47
2021/08/24 00:43:21;;;;;;;2.80;2.23;;;13.30;99.90;;;;;;5118305;27;20197;-42
2021/08/24 00:45:52;;;;;;;3.03;2.33;;;13.30;99.90;;;;;;5119145;27;20203;-43
2021/08/24 00:48:23;;;;;;;3.87;2.97;;;13.30;99.90;;;;;;5128554;27;20192;-42
2021/08/24 00:50:51;;;;;;;2.40;2.20;;;13.30;99.90;;;;;;5126802;27;20235;-46
2021/08/24 00:53:22;;;;;;;2.77;2.17;;;13.30;99.90;;;;;;5125743;27;20544;-43
2021/08/24 00:55:50;;;;;;;4.20;2.10;;;13.30;99.90;;;;;;5109322;27;21877;-47
2021/08/24 00:58:18;;;;;;;3.70;2.10;;;13.20;99.90;;;;;;5127659;27;20211;-44
2021/08/24 01:00:46;;;;;;;6.40;2.30;;;13.20;99.90;;;;;;5101382;27;20289;-53
2021/08/24 01:03:15;;;;;;;5.60;2.13;;;13.20;99.90;;;;;;5105881;27;20189;-44
2021/08/24 01:05:44;;;;;;;3.77;2.40;;;13.20;99.90;;;;;;5116827;27;20226;-49
2021/08/24 01:08:22;;;;;;;2.97;2.00;;;13.20;99.90;;;;;;5124252;27;20203;-46
2021/08/24 01:10:58;;;;;;;2.40;2.20;;;13.20;99.90;;;;;;5113557;27;20919;-42
2021/08/24 01:13:35;;;;;;;3.83;2.47;;;13.20;99.90;;;;;;5124226;27;20200;-47
2021/08/24 01:16:08;;;;;;;2.80;2.43;;;13.10;99.90;;;;;;5104723;27;20807;-46
2021/08/24 01:18:44;;;;;;;2.40;1.73;;;13.10;99.90;;;;;;5111423;27;20227;-52
2021/08/24 01:21:29;;;;;;;4.00;2.40;;;13.00;99.90;;;;;;5101216;27;20596;-45
2021/08/24 01:24:01;;;;;;;2.97;2.77;;;13.00;99.90;;;;;;5101584;28;20188;-45
2021/08/24 01:26:36;;;;;;;4.27;2.80;;;12.90;99.90;;;;;;5098367;27;20552;-50
2021/08/24 01:29:45;;;;;;;2.87;2.53;;;13.00;99.90;;;;;;5122341;27;20212;-47
2021/08/24 01:32:27;;;;;;;3.90;2.60;;;12.90;99.90;;;;;;5107480;27;20295;-46
2021/08/24 01:35:18;;;;;;;5.37;3.03;;;12.90;99.90;;;;;;5113060;27;20189;-43
2021/08/24 01:37:53;;;;;;;3.10;2.90;;;12.90;99.90;;;;;;5112740;27;20206;-50
2021/08/24 01:40:36;;;;;;;3.10;2.60;;;12.80;99.90;;;;;;5124738;27;20203;-44
2021/08/24 01:43:06;;;;;;;3.33;2.90;;;12.90;99.90;;;;;;5115028;27;20188;-42
2021/08/24 01:45:38;;;;;;;4.40;3.43;;;12.90;99.90;;;;;;5106184;27;20196;-51
2021/08/24 01:48:12;;;;;;;3.50;3.07;;;12.80;99.90;;;;;;5120030;27;20969;-47
2021/08/24 01:50:43;;;;;;;3.87;3.00;;;12.80;99.90;;;;;;5122841;27;20223;-51
2021/08/24 01:53:18;;;;;;;4.30;3.17;;;12.80;99.90;;;;;;5120039;27;20196;-44
2021/08/24 01:55:47;;;;;;;4.17;3.77;;;12.80;99.90;;;;;;5115645;27;20191;-48
2021/08/24 01:58:17;;;;;;;4.23;3.83;;;12.80;99.90;;;;;;5124373;27;20228;-49
2021/08/24 02:00:48;;;;;;;4.10;3.70;;;12.80;99.90;;;;;;5109039;27;20237;-53
2021/08/24 02:03:20;;;;;;;5.40;4.43;;;12.80;99.90;;;;;;5116579;27;20196;-43
2021/08/24 02:05:50;;;;;;;5.43;3.77;;;12.70;99.90;;;;;;5126109;27;20181;-45
2021/08/24 02:08:22;;;;;;;6.13;4.17;;;12.70;99.90;;;;;;5113335;27;20552;-43
2021/08/24 02:10:51;;;;;;;6.60;4.30;;;12.70;99.90;;;;;;5117978;27;20211;-43
2021/08/24 02:13:20;;;;;;;5.03;3.90;;;12.70;99.90;;;;;;5109796;27;20686;-46
2021/08/24 02:15:51;;;;;;;3.93;3.30;;;12.60;99.90;;;;;;5114980;27;20756;-42
2021/08/24 02:18:23;;;;;;;5.00;3.87;;;12.70;99.90;;;;;;5107737;27;20220;-47
2021/08/24 02:20:56;;;;;;;5.43;4.00;;;12.70;99.90;;;;;;5120040;27;20200;-47
2021/08/24 02:23:28;;;;;;;5.27;3.70;;;12.60;99.90;;;;;;5117511;27;20577;-42
2021/08/24 02:25:58;;;;;;;3.90;3.37;;;12.60;99.90;;;;;;5109512;27;20193;-44
2021/08/24 02:28:31;;;;;;;6.63;4.20;;;12.60;99.90;;;;;;5102187;27;20207;-42
2021/08/24 02:31:02;;;;;;;4.10;3.70;;;12.60;99.90;;;;;;5121040;27;20228;-42
2021/08/24 02:33:36;;;;;;;4.87;3.40;;;12.60;99.90;;;;;;5106467;27;20201;-50
2021/08/24 02:36:04;;;;;;;6.97;3.73;;;12.60;99.90;;;;;;5129678;27;20907;-45
2021/08/24 02:38:36;;;;;;;4.13;3.80;;;12.60;99.90;;;;;;5111681;27;20220;-50
2021/08/24 02:41:10;;;;;;;5.47;3.70;;;12.60;99.90;;;;;;5115165;28;20205;-45
2021/08/24 02:43:43;;;;;;;5.37;3.60;;;12.60;99.90;;;;;;5103849;27;20205;-51
2021/08/24 02:46:13;;;;;;;5.03;3.93;;;12.60;99.90;;;;;;5133525;27;20224;-41
2021/08/24 02:48:42;;;;;;;4.10;3.70;;;12.50;99.90;;;;;;5111919;27;20208;-49
2021/08/24 02:51:15;;;;;;;5.03;4.03;;;12.50;99.90;;;;;;5126455;27;20235;-45
2021/08/24 02:53:48;;;;;;;6.40;3.50;;;12.60;99.90;;;;;;5117061;27;20654;-50
2021/08/24 02:56:15;;;;;;;4.13;3.27;;;12.50;99.90;;;;;;5107798;28;20196;-42
2021/08/24 02:58:41;;;;;;;4.37;3.97;;;12.50;99.90;;;;;;5123771;27;20224;-50
2021/08/24 03:01:08;;;;;;;6.20;3.57;;;12.60;99.90;;;;;;5104672;27;20216;-41
2021/08/24 03:03:34;;;;;;;4.50;3.67;;;12.50;99.90;;;;;;5118993;27;20204;-47
2021/08/24 03:06:01;;;;;;;5.80;3.73;;;12.50;99.90;;;;;;5122600;27;20212;-43
2021/08/24 03:08:28;;;;;;;8.10;3.63;;;12.50;99.90;;;;;;5119009;27;20545;-51
2021/08/24 03:10:57;;;;;;;4.27;3.63;;;12.50;99.90;;;;;;5110153;27;20209;-42
2021/08/24 03:13:28;;;;;;;5.93;3.33;;;12.50;99.90;;;;;;5107149;28;20709;-46
2021/08/24 03:16:02;;;;;;;3.93;3.53;;;12.40;99.90;;;;;;5095284;27;20212;-42
2021/08/24 03:18:35;;;;;;;5.80;3.80;;;12.40;99.90;;;;;;5126047;27;20212;-42
2021/08/24 03:21:05;;;;;;;4.20;3.80;;;12.40;99.90;;;;;;5114540;27;20217;-50
2021/08/24 03:23:33;;;;;;;4.23;3.83;;;12.40;99.90;;;;;;5103116;27;20201;-43
2021/08/24 03:26:01;;;;;;;3.90;3.60;;;12.40;99.90;;;;;;5104653;27;20204;-51
2021/08/24 03:28:28;;;;;;;5.27;3.83;;;12.40;99.90;;;;;;5114315;27;20199;-44
2021/08/24 03:30:54;;;;;;;6.80;4.10;;;12.40;99.90;;;;;;5118714;27;20221;-49
2021/08/24 03:33:21;;;;;;;3.83;3.53;;;12.30;99.90;;;;;;5109467;27;20192;-42
2021/08/24 03:35:48;;;;;;;4.90;3.70;;;12.30;99.90;;;;;;5135799;27;20191;-52
2021/08/24 03:38:15;;;;;;;4.93;3.90;;;12.30;99.90;;;;;;5106780;27;20213;-43
2021/08/24 03:40:41;;;;;;;5.87;4.60;;;12.30;99.90;;;;;;5115278;27;20217;-42
2021/08/24 03:43:10;;;;;;;5.47;4.47;;;12.30;99.90;;;;;;5112716;27;20192;-45
2021/08/24 03:45:38;;;;;;;8.40;5.10;;;12.30;99.90;;;;;;5103479;27;20818;-47
2021/08/24 03:48:05;;;;;;;8.17;4.40;;;12.30;99.90;;;;;;5108055;27;20208;-42
2021/08/24 03:50:32;;;;;;;6.13;4.60;;;12.30;99.90;;;;;;5108976;27;20968;-42
2021/08/24 03:52:59;;;;;;;5.77;5.10;;;12.30;99.90;;;;;;5102644;27;20197;-45
2021/08/24 03:55:25;;;;;;;8.33;4.90;;;12.30;99.90;;;;;;5115728;27;20197;-50
2021/08/24 03:57:53;;;;;;;5.83;5.33;;;12.30;99.90;;;;;;5120861;27;20203;-42
2021/08/24 04:00:21;;;;;;;5.73;4.97;;;12.30;99.90;;;;;;5112019;27;20192;-51
2021/08/24 04:02:47;;;;;;;5.63;5.10;;;12.30;99.90;;;;;;5095271;27;20211;-42
2021/08/24 04:05:14;;;;;;;16.50;5.27;;;12.20;99.90;;;;;;5125816;27;20197;-50
2021/08/24 04:07:42;;;;;;;11.70;4.40;;;12.20;99.90;;;;;;5099303;27;20197;-45
2021/08/24 04:10:10;;;;;;;7.07;5.67;;;12.20;99.90;;;;;;5107788;27;20201;-44
2021/08/24 04:12:36;;;;;;;7.17;5.33;;;12.20;99.90;;;;;;5112735;27;20193;-44
2021/08/24 04:15:06;;;;;;;6.50;5.90;;;12.20;99.90;;;;;;5107372;27;20692;-43
2021/08/24 04:17:35;;;;;;;8.10;6.27;;;12.20;99.90;;;;;;5108361;27;20317;-43
2021/08/24 04:20:02;;;;;;;10.00;5.77;;;12.10;99.90;;;;;;5110725;27;20310;-47
2021/08/24 04:22:28;;;;;;;9.97;6.90;;;12.10;99.90;;;;;;5117586;27;20252;-50
2021/08/24 04:24:55;;;;;;;6.57;5.70;;;12.10;99.90;;;;;;5104369;27;20716;-45
2021/08/24 04:27:22;;;;;;;7.53;6.27;;;12.20;99.90;;;;;;5102725;28;20194;-50
2021/08/24 04:29:49;;;;;;;8.60;5.87;;;12.10;99.90;;;;;;5103238;28;20192;-46
2021/08/24 04:32:21;;;;;;;8.07;6.87;;;12.10;99.90;;;;;;5104572;28;20217;-54
2021/08/24 04:34:49;;;;;;;7.27;6.50;;;12.10;99.90;;;;;;5110349;27;20211;-50
2021/08/24 04:37:16;;;;;;;9.87;7.00;;;12.10;99.90;;;;;;5123914;27;20203;-51
2021/08/24 04:39:42;;;;;;;12.83;6.93;;;12.10;99.90;;;;;;5116210;27;20212;-46
2021/08/24 04:42:09;;;;;;;8.07;5.90;;;12.10;99.90;;;;;;5124179;27;20295;-43
2021/08/24 04:44:36;;;;;;;7.57;6.73;;;12.10;99.90;;;;;;5121290;27;20188;-46
2021/08/24 04:47:02;;;;;;;8.47;5.97;;;12.10;99.90;;;;;;5119927;27;20669;-45
2021/08/24 04:49:29;;;;;;;8.97;6.73;;;12.10;99.90;;;;;;5108447;27;20184;-53
2021/08/24 04:51:57;;;;;;;10.57;7.67;;;12.20;99.90;;;;;;5125051;27;20223;-45
2021/08/24 04:54:26;;;;;;;10.20;7.10;;;12.20;99.90;;;;;;5116194;27;20211;-53
2021/08/24 04:56:52;;;;;;;8.20;6.77;;;12.20;99.90;;;;;;5122107;27;20196;-49
2021/08/24 04:59:19;;;;;;;6.80;6.07;;;12.20;99.90;;;;;;5101568;27;20228;-52
2021/08/24 05:01:45;;;;;;;9.83;6.47;;;12.20;99.90;;;;;;5113792;27;20212;-44
2021/08/24 05:04:12;;;;;;;6.60;5.87;;;12.20;99.90;;;;;;5126730;27;20695;-51
2021/08/24 05:06:39;;;;;;;10.47;6.03;;;12.30;99.90;;;;;;5105070;27;20200;-48
2021/08/24 05:09:06;;;;;;;8.40;6.47;;;12.30;99.90;;;;;;5124024;27;20189;-45
2021/08/24 05:11:33;;;;;;;7.33;5.73;;;12.30;99.90;;;;;;5114753;27;20220;-48
2021/08/24 05:14:00;;;;;;;8.83;5.83;;;12.30;99.90;;;;;;5125320;27;20199;-45
2021/08/24 05:16:26;;;;;;;6.53;5.93;;;12.20;99.90;;;;;;5104465;27;20216;-51
2021/08/24 05:18:53;;;;;;;8.50;5.87;;;12.30;99.90;;;;;;5104808;27;20224;-43
2021/08/24 05:21:20;;;;;;;7.40;6.30;;;12.30;99.90;;;;;;5098438;27;20231;-50
2021/08/24 05:23:47;;;;;;;8.27;6.20;;;12.30;99.90;;;;;;5121591;27;20176;-48
2021/08/24 05:26:18;;;;;;;6.77;5.90;;;12.30;99.90;;;;;;5118744;27;20689;-49
2021/08/24 05:28:45;;;;;;;6.27;5.67;;;12.40;99.90;;;;;;5121655;27;20322;-45
2021/08/24 05:31:12;;;;;;;11.70;6.80;;;12.40;99.90;;;;;;5111203;27;20869;-44
2021/08/24 05:33:39;;;;;;;9.13;6.20;;;12.50;99.90;;;;;;5124134;27;20196;-46
2021/08/24 05:36:06;;;;;;;7.30;5.57;;;12.50;99.90;;;;;;5102486;27;25774;-47
2021/08/24 05:38:34;;;;;;;5.43;4.90;;;12.50;99.90;;;;;;5110165;27;20300;-47
2021/08/24 05:41:03;;;;;;;6.00;5.40;;;12.60;99.90;;;;;;5111663;27;20225;-48
2021/08/24 05:43:31;;;;;;;9.17;5.53;;;12.60;99.90;;;;;;5104959;27;20205;-51
2021/08/24 05:46:01;;;;;;;8.80;5.80;;;12.70;99.90;;;;;;5123287;27;20205;-43
2021/08/24 05:48:29;;;;;;;8.37;5.57;;;12.70;99.90;;;;;;5110103;27;20189;-51
2021/08/24 05:50:56;;;;;;;5.73;5.13;;;12.80;99.90;;;;;;5112036;27;20208;-44
2021/08/24 05:53:23;;;;;;;6.47;5.17;;;12.80;99.90;;;;;;5106191;27;20208;-50
2021/08/24 05:55:50;;;;;;;8.57;5.57;;;12.90;99.90;;;;;;5113914;27;20181;-42
2021/08/24 05:58:17;;;;;;;6.97;5.63;;;12.90;99.90;;;;;;5104568;27;20208;-47
2021/08/24 06:00:45;;;;;;;6.73;5.83;;;13.00;99.90;;;;;;5115299;27;20270;-44
2021/08/24 06:03:12;;;;;;;7.73;5.53;;;13.10;99.90;;;;;;5118054;27;20204;-53
2021/08/24 06:05:40;;;;;;;6.23;5.27;;;13.10;99.90;;;;;;5122971;27;20196;-46
2021/08/24 06:08:08;;;;;;;9.03;5.03;;;13.20;99.90;;;;;;5109206;27;20209;-42
2021/08/24 06:10:36;;;;;;;5.93;5.17;;;13.30;99.90;;;;;;5117878;27;20207;-43
2021/08/24 06:13:03;;;;;;;5.73;4.83;;;13.30;99.90;;;;;;5116638;27;20196;-44
2021/08/24 06:15:29;;;;;;;5.13;4.60;;;13.40;99.90;;;;;;5113661;27;20685;-53
2021/08/24 06:17:57;;;;;;;8.87;5.27;;;13.50;99.90;;;;;;5118207;27;20196;-43
2021/08/24 06:20:24;;;;;;;5.07;4.50;;;13.60;99.90;;;;;;5119153;27;20254;-52
2021/08/24 06:22:50;;;;;;;7.40;4.43;;;13.70;99.90;;;;;;5100719;27;20212;-44
2021/08/24 06:25:18;;;;;;;7.87;4.33;;;13.80;99.90;;;;;;5124195;27;20678;-51
2021/08/24 06:27:44;;;;;;;4.93;3.80;;;13.80;99.90;;;;;;5119569;27;20930;-44
2021/08/24 06:30:12;;;;;;;4.93;3.60;;;13.90;99.90;;;;;;5122461;27;20204;-45
2021/08/24 06:32:42;;;;;;;5.67;5.03;;;14.00;99.90;;;;;;5120958;27;20189;-42
2021/08/24 06:35:11;;;;;;;8.23;4.40;;;14.00;99.90;;;;;;5121865;27;20208;-43
2021/08/24 06:37:38;;;;;;;7.93;4.07;;;14.10;99.90;;;;;;5100754;27;20200;-49
2021/08/24 06:40:06;;;;;;;5.47;3.90;;;14.20;99.90;;;;;;5119489;27;20220;-42
2021/08/24 06:42:40;;;;;;;4.90;4.40;;;14.30;99.90;;;;;;5105975;27;20196;-42
2021/08/24 06:45:07;;;;;;;4.73;3.87;;;14.40;99.90;;;;;;5108285;27;20292;-41
2021/08/24 06:47:34;;;;;;;6.33;3.80;;;14.50;99.90;;;;;;5108714;27;20193;-43
2021/08/24 06:50:00;;;;;;;3.80;3.37;;;14.60;99.90;;;;;;5114693;27;20666;-42
2021/08/24 06:52:28;;;;;;;4.13;3.70;;;14.70;99.90;;;;;;5111201;27;20214;-49
2021/08/24 06:54:55;;;;;;;4.97;3.90;;;14.90;99.90;;;;;;5097778;27;20209;-42
2021/08/24 06:57:21;;;;;;;5.83;3.33;;;14.90;99.90;;;;;;5109590;27;20189;-50
2021/08/24 06:59:48;;;;;;;3.97;2.63;;;15.10;99.90;;;;;;5118425;27;20334;-47
2021/08/24 07:02:15;;;;;;;6.77;3.83;;;15.20;99.90;;;;;;5109209;27;20578;-52
2021/08/24 07:04:42;;;;;;;3.73;3.43;;;15.30;99.90;;;;;;5128034;27;20188;-44
2021/08/24 07:07:09;;;;;;;4.60;3.33;;;15.30;99.90;;;;;;5125315;27;20684;-42
2021/08/24 07:09:37;;;;;;;3.77;3.33;;;15.40;99.90;;;;;;5106302;27;20197;-42
2021/08/24 07:12:03;;;;;;;3.63;3.00;;;15.50;99.90;;;;;;5125064;27;20207;-43
2021/08/24 07:14:31;;;;;;;3.20;2.90;;;15.50;99.90;;;;;;5108270;27;20185;-53
2021/08/24 07:16:57;;;;;;;4.03;3.63;;;15.60;99.90;;;;;;5115643;27;20231;-43
2021/08/24 07:19:24;;;;;;;6.53;2.83;;;15.60;99.90;;;;;;5123849;27;20223;-49
2021/08/24 07:21:51;;;;;;;2.70;2.50;;;15.60;99.90;;;;;;5124698;27;20228;-43
2021/08/24 07:24:18;;;;;;;6.67;3.83;;;15.70;99.90;;;;;;5120799;27;20613;-50
2021/08/24 07:26:45;;;;;;;5.00;3.77;;;15.70;99.90;;;;;;5116316;27;20196;-43
2021/08/24 07:29:13;;;;;;;5.53;3.67;;;15.70;99.90;;;;;;5123714;27;20199;-51
2021/08/24 07:31:39;;;;;;;7.97;5.30;;;15.80;99.90;;;;;;5106292;27;20229;-43
2021/08/24 07:34:06;;;;;;;4.40;4.00;;;15.80;99.90;;;;;;5119965;27;20570;-43
2021/08/24 07:36:33;;;;;;;6.20;3.90;;;15.90;99.90;;;;;;5113384;27;20908;-44
2021/08/24 07:39:01;;;;;;;5.47;4.37;;;16.10;99.90;;;;;;5129209;27;20200;-42
2021/08/24 07:41:27;;;;;;;4.00;3.50;;;16.20;99.90;;;;;;5106633;27;20232;-52
2021/08/24 07:43:55;;;;;;;4.53;3.40;;;16.30;99.90;;;;;;5116472;27;20215;-42
2021/08/24 07:46:22;;;;;;;6.70;3.63;;;16.30;99.90;;;;;;5123369;27;20203;-49
2021/08/24 07:48:48;;;;;;;4.10;3.20;;;16.40;99.90;;;;;;5119984;27;20189;-43
2021/08/24 07:51:19;;;;;;;3.87;3.37;;;16.40;99.90;;;;;;5125672;27;20219;-51
2021/08/24 07:53:46;;;;;;;3.70;2.80;;;16.40;99.90;;;;;;5116773;27;20192;-43
2021/08/24 07:56:13;;;;;;;4.10;2.57;;;16.50;99.90;;;;;;5120240;27;20197;-54
2021/08/24 07:58:39;;;;;;;3.80;2.90;;;16.50;99.90;;;;;;5111361;27;20199;-48
2021/08/24 08:01:07;;;;;;;7.87;3.07;;;16.50;99.90;;;;;;5120968;27;20666;-44
2021/08/24 08:03:34;;;;;;;3.40;3.10;;;16.60;99.90;;;;;;5121508;27;20261;-42
2021/08/24 08:06:01;;;;;;;3.80;2.50;;;16.70;99.90;;;;;;5133263;27;21110;-42
2021/08/24 08:08:28;;;;;;;4.53;3.17;;;16.80;99.90;;;;;;5121779;27;20956;-50
2021/08/24 08:10:56;;;;;;;6.67;2.50;;;16.80;99.90;;;;;;5106968;27;20213;-43
2021/08/24 08:13:23;;;;;;;6.30;2.60;;;16.90;99.90;;;;;;5106895;27;20197;-49
2021/08/24 08:15:50;;;;;;;4.03;2.67;;;17.00;99.90;;;;;;5117630;27;20205;-45
2021/08/24 08:18:18;;;;;;;2.40;2.13;;;17.10;99.90;;;;;;5124355;27;20199;-53
2021/08/24 08:20:47;;;;;;;3.27;2.10;;;17.10;99.90;;;;;;5117566;27;20970;-43
2021/08/24 08:23:16;;;;;;;4.80;2.47;;;17.20;99.90;;;;;;5106312;27;20273;-53
2021/08/24 08:25:43;;;;;;;4.13;1.90;;;17.30;99.90;;;;;;5113795;27;20195;-44
2021/08/24 08:28:10;;;;;;;3.37;2.20;;;17.30;99.90;;;;;;5122820;27;20212;-44
2021/08/24 08:30:37;;;;;;;2.10;1.73;;;;;;;;;;5111300;27;20196;-46
2021/08/24 08:33:05;;;;;;;2.27;1.87;;;17.40;99.90;;;;;;5108119;27;20196;-48
2021/08/24 08:35:33;;;;;;;3.60;1.70;;;17.50;99.90;;;;;;5113158;27;20217;-50
2021/08/24 08:38:01;;;;;;;2.83;1.70;;;17.50;99.90;;;;;;5130261;27;20193;-45
2021/08/24 08:40:33;;;;;;;2.10;1.77;;;17.60;99.90;;;;;;5105261;27;20225;-51
2021/08/24 08:43:07;;;;;;;3.03;1.77;;;17.70;99.90;;;;;;5111022;27;20541;-46
2021/08/24 08:45:41;;;;;;;2.43;1.80;;;17.80;99.90;;;;;;5092344;27;20205;-43
2021/08/24 08:48:40;;;;;;;7.73;2.77;;;17.90;99.90;;;;;;5117615;27;20208;-46
2021/08/24 08:51:24;;;;;;;3.20;2.30;;;18.00;99.90;;;;;;5116529;27;20224;-46
2021/08/24 08:53:54;;;;;;;4.43;1.83;;;18.00;99.90;;;;;;5122163;27;20939;-43
2021/08/24 08:56:31;;;;;;;1.83;1.43;;;18.00;99.90;;;;;;5108178;27;20188;-50
2021/08/24 08:59:05;;;;;;;2.47;1.77;;;18.10;99.90;;;;;;5115129;27;20176;-42
2021/08/24 09:01:38;;;;;;;3.03;1.50;;;18.30;99.90;;;;;;5097764;27;20228;-46
2021/08/24 09:04:15;;;;;;;2.30;1.80;;;18.30;99.90;;;;;;5121040;27;20205;-42
2021/08/24 09:06:46;;;;;;;4.67;4.27;;;18.40;99.90;;;;;;5118809;27;20277;-46
2021/08/24 09:09:13;;;;;;;3.07;2.37;;;18.40;99.90;;;;;;5109966;27;20193;-50
2021/08/24 09:11:45;;;;;;;4.23;1.63;;;18.50;99.90;;;;;;5118292;27;20213;-41
2021/08/24 09:14:18;;;;;;;2.20;2.00;;;18.50;99.90;;;;;;5110161;27;20563;-53
2021/08/24 09:16:50;;;;;;;2.40;1.70;;;18.60;99.90;;;;;;5101193;27;20220;-43
2021/08/24 09:19:21;;;;;;;3.80;2.00;;;18.80;99.90;;;;;;5117136;27;20206;-48
2021/08/24 09:21:51;;;;;;;3.77;1.97;;;18.70;99.90;;;;;;5113701;27;20942;-46
2021/08/24 09:24:22;;;;;;;3.43;2.00;;;18.70;99.90;;;;;;5122884;27;20222;-49
2021/08/24 09:26:54;;;;;;;2.57;2.10;;;18.60;99.90;;;;;;5116962;27;20203;-42
2021/08/24 09:29:26;;;;;;;1.90;1.63;;;18.70;99.90;;;;;;5105655;27;20424;-45
2021/08/24 09:31:53;;;;;;;4.27;2.10;;;18.70;99.90;;;;;;5102972;27;20224;-43
2021/08/24 09:34:26;;;;;;;2.10;1.80;;;18.80;99.90;;;;;;5113256;27;20211;-50
2021/08/24 09:36:54;;;;;;;2.87;1.83;;;18.80;99.90;;;;;;5121127;27;20200;-44
2021/08/24 09:39:55;;;;;;;2.00;1.70;;;18.80;99.90;;;;;;5109095;27;20204;-51
2021/08/24 09:42:32;;;;;;;3.27;2.37;;;18.80;99.90;;;;;;5107339;27;20221;-48
2021/08/24 09:45:01;;;;;;;4.50;2.20;;;18.80;99.90;;;;;;5124784;27;20198;-45
2021/08/24 09:47:29;;;;;;;2.40;2.17;;;18.90;99.90;;;;;;5105750;27;20208;-50
2021/08/24 09:50:02;;;;;;;2.30;2.00;;;19.10;99.90;;;;;;5118485;27;20228;-43
2021/08/24 09:52:33;;;;;;;2.17;1.97;;;19.20;99.90;;;;;;5118041;27;20603;-50
2021/08/24 09:55:04;;;;;;;2.70;2.33;;;19.30;99.90;;;;;;5118931;27;20223;-43
2021/08/24 09:57:33;;;;;;;2.20;2.00;;;19.30;99.90;;;;;;5113802;27;20193;-49
2021/08/24 10:00:04;;;;;;;2.83;2.00;;;19.30;99.90;;;;;;5119565;27;20217;-47
2021/08/24 10:02:41;;;;;;;2.10;1.83;;;19.30;99.90;;;;;;5092375;27;20374;-42
2021/08/24 10:05:12;;;;;;;2.17;1.87;;;19.50;99.90;;;;;;5112500;27;20215;-42
2021/08/24 10:07:43;;;;;;;3.13;2.00;;;19.60;99.90;;;;;;5106464;27;20193;-46
2021/08/24 10:10:22;;;;;;;2.07;1.70;;;19.70;99.90;;;;;;5118823;27;20209;-46
2021/08/24 10:12:52;;;;;;;2.00;1.77;;;19.80;99.90;;;;;;5122271;27;20181;-41
2021/08/24 10:15:29;;;;;;;2.83;2.13;;;19.80;99.90;;;;;;5122786;27;20192;-49
2021/08/24 10:17:59;;;;;;;1.70;1.60;;;19.80;99.90;;;;;;5121795;27;20192;-44
2021/08/24 10:20:30;;;;;;;1.93;1.73;;;19.80;99.90;;;;;;5096197;27;20225;-50
2021/08/24 10:22:59;;;;;;;2.87;1.77;;;19.80;99.90;;;;;;5112928;27;20204;-41
2021/08/24 10:25:28;;;;;;;2.30;1.67;;;19.80;99.90;;;;;;5113363;27;20208;-49
2021/08/24 10:28:05;;;;;;;2.70;1.43;;;19.80;99.90;;;;;;5110661;27;20201;-45
2021/08/24 10:30:43;;;;;;;4.87;1.93;;;19.80;99.90;;;;;;5102169;28;20216;-44
2021/08/24 10:33:30;;;;;;;1.97;1.77;;;19.70;99.90;;;;;;5113173;28;20201;-50
2021/08/24 10:36:02;;;;;;;2.10;1.70;;;19.70;99.90;;;;;;5103036;27;20270;-43
2021/08/24 10:38:57;;;;;;;3.17;1.73;;;19.70;99.90;;;;;;5117842;27;20200;-55
2021/08/24 10:41:35;;;;;;;2.83;1.80;;;19.80;99.90;;;;;;5085679;27;20252;-53
2021/08/24 10:44:07;;;;;;;2.40;2.07;;;19.90;99.90;;;;;;5116743;28;20189;-41
2021/08/24 10:46:47;;;;;;;3.07;1.50;;;19.90;99.90;;;;;;5118370;27;20897;-42
2021/08/24 10:49:13;;;;;;;2.50;1.90;;;20.00;99.90;;;;;;5119757;27;20193;-51
2021/08/24 10:51:47;;;;;;;1.97;1.70;;;20.00;99.90;;;;;;5093666;27;21530;-43
2021/08/24 10:54:42;;;;;;;5.00;2.40;;;20.10;99.90;;;;;;5119142;27;20204;-50
2021/08/24 10:57:24;;;;;;;3.23;1.77;;;20.20;99.90;;;;;;5112196;27;20212;-42
2021/08/24 10:59:59;;;;;;;2.70;1.80;;;20.20;99.90;;;;;;5115634;28;20196;-40
2021/08/24 11:02:40;;;;;;;4.03;1.93;;;20.20;99.90;;;;;;5109960;28;20284;-51
2021/08/24 11:05:26;;;;;;;3.70;1.63;;;20.20;99.90;;;;;;5120723;27;20188;-47
2021/08/24 11:08:01;;;;;;;3.37;2.10;;;20.20;99.90;;;;;;5119203;27;20196;-43
2021/08/24 11:10:39;;;;;;;4.93;2.27;;;20.20;99.90;;;;;;5116517;27;20196;-51
2021/08/24 11:13:17;;;;;;;2.00;1.80;;;20.30;99.90;;;;;;5115429;27;20208;-43
2021/08/24 11:15:48;;;;;;;3.87;2.00;;;20.40;99.90;;;;;;5118428;27;20185;-45
2021/08/24 11:18:25;;;;;;;2.93;1.97;;;20.40;99.90;;;;;;5119989;27;20208;-53
2021/08/24 11:21:00;;;;;;;2.83;1.90;;;20.60;99.90;;;;;;5113008;27;20221;-41
2021/08/24 11:23:47;;;;;;;2.20;1.97;;;20.70;99.90;;;;;;5103440;27;20204;-51
2021/08/24 11:26:23;;;;;;;1.97;1.77;;;20.80;99.90;;;;;;5118466;27;20231;-52
2021/08/24 11:29:01;;;;;;;2.97;1.70;;;20.70;99.90;;;;;;5114932;27;20219;-42
2021/08/24 11:31:34;;;;;;;5.73;2.10;;;20.50;99.90;;;;;;5119057;27;20686;-51
2021/08/24 11:34:08;;;;;;;2.07;1.87;;;20.40;99.90;;;;;;5120807;27;20683;-44
2021/08/24 11:36:39;;;;;;;1.93;1.60;;;20.40;99.90;;;;;;5125836;27;20249;-49
2021/08/24 11:39:12;;;;;;;2.67;1.87;;;20.40;99.90;;;;;;5105303;27;20644;-43
2021/08/24 11:41:41;;;;;;;1.67;1.47;;;20.40;99.90;;;;;;5113189;27;20221;-45
2021/08/24 11:44:11;;;;;;;5.43;4.77;;;20.40;99.90;;;;;;5123322;27;20207;-46
2021/08/24 11:46:44;;;;;;;2.87;1.90;;;20.40;99.90;;;;;;5113002;27;20831;-47
2021/08/24 11:49:18;;;;;;;1.77;1.60;;;20.30;99.90;;;;;;5130241;27;20283;-44
2021/08/24 11:51:50;;;;;;;4.50;1.70;;;20.30;99.90;;;;;;5113684;27;20230;-47
2021/08/24 11:54:22;;;;;;;7.57;2.03;;;20.20;99.90;;;;;;5102390;27;20216;-50
2021/08/24 11:56:56;;;;;;;2.80;1.80;;;20.10;99.90;;;;;;5118606;27;20185;-45
2021/08/24 11:59:27;;;;;;;2.00;1.80;;;20.10;99.90;;;;;;5122762;27;20676;-51
2021/08/24 12:01:54;;;;;;;2.07;1.83;;;20.10;99.90;;;;;;5122435;27;20689;-43
2021/08/24 12:04:22;;;;;;;3.73;2.20;;;20.20;99.90;;;;;;5119303;27;20200;-52
2021/08/24 12:06:54;;;;;;;2.27;2.07;;;20.30;99.90;;;;;;5112423;27;20188;-45
2021/08/24 12:09:41;;;;;;;4.60;1.70;;;20.40;99.90;;;;;;5100484;27;20211;-50
2021/08/24 12:12:17;;;;;;;5.20;2.23;;;20.50;99.90;;;;;;5115875;27;20219;-48
2021/08/24 12:14:55;;;;;;;2.10;1.83;;;20.60;99.90;;;;;;5101753;27;20275;-42
2021/08/24 12:17:27;;;;;;;1.90;1.70;;;20.80;99.90;;;;;;5111466;27;20386;-42
2021/08/24 12:19:56;;;;;;;2.97;1.90;;;20.90;99.40;;;;;;5119876;27;20572;-50
2021/08/24 12:22:29;;;;;;;4.23;1.73;;;21.00;99.30;;;;;;5112849;27;20811;-42
2021/08/24 12:25:00;;;;;;;2.70;1.77;;;20.90;99.80;;;;;;5102048;27;20652;-51
2021/08/24 12:28:00;;;;;;;2.47;2.00;;;20.70;99.90;;;;;;5110139;27;20189;-42
2021/08/24 12:31:10;;;;;;;2.27;1.90;;;20.50;99.90;;;;;;5104117;27;20211;-42
2021/08/24 12:33:40;;;;;;;2.07;1.57;;;20.60;98.60;;;;;;5112642;27;20200;-41
2021/08/24 12:36:53;;;;;;;6.87;4.67;;;20.70;99.40;;;;;;5104734;27;20222;-50
2021/08/24 12:39:36;;;;;;;2.27;1.70;;;20.90;97.80;;;;;;5102428;27;20272;-45
2021/08/24 12:42:24;;;;;;;2.13;1.93;;;21.00;98.00;;;;;;5107342;27;20227;-50
2021/08/24 12:45:19;;;;;;;1.70;1.60;;;21.10;99.40;;;;;;5132525;27;20189;-51
2021/08/24 12:47:49;;;;;;;3.00;1.50;;;21.10;96.40;;;;;;5116101;27;20186;-45
2021/08/24 12:50:46;;;;;;;2.37;1.73;;;21.20;97.70;;;;;;5109711;27;20198;-41
2021/08/24 12:53:42;;;;;;;2.47;1.70;;;21.30;96.40;;;;;;5110586;27;20204;-41
2021/08/24 12:56:09;;;;;;;2.97;2.27;;;21.50;96.70;;;;;;5103463;27;20965;-45
2021/08/24 12:58:47;;;;;;;2.07;1.53;;;21.60;97.70;;;;;;5121703;27;20204;-41
2021/08/24 13:01:24;;;;;;;2.83;1.73;;;21.70;97.50;;;;;;5109703;27;20212;-41
2021/08/24 13:03:59;;;;;;;2.83;1.67;;;21.80;95.60;;;;;;5118100;27;20199;-49
2021/08/24 13:06:28;;;;;;;1.83;1.70;;;22.10;94.70;;;;;;5105102;27;20205;-43
2021/08/24 13:09:38;;;;;;;1.83;1.65;;;22.20;95.30;;;;;;5106030;27;20554;-49